Time;durP1;ratioP1;P1;durP2;ratioP2;P2;SDS_P1;SDS_P2;PMS_P1;PMS_P2;Temp;Humidity;BMP_temperature;BMP_pressure;BME280_temperature;BME280_humidity;BME280_pressure;Samples;Min_cycle;Max_cycle;Signal;HPM_P1;HPM_P2
2021/10/10 19:06:47;;;;;;;12.50;4.85;;;;;;;22.36;36.90;103195.78;5387411;23;20052;-74
2021/10/10 19:09:14;;;;;;;15.40;6.45;;;;;;;22.30;37.06;103201.91;4890716;29;20037;-74
2021/10/10 19:11:40;;;;;;;14.45;4.90;;;;;;;22.28;36.94;103198.59;4888946;29;20048;-71
2021/10/10 19:14:05;;;;;;;11.32;3.55;;;;;;;22.24;37.17;103200.44;4884683;29;20036;-71
2021/10/10 19:16:31;;;;;;;12.52;3.95;;;;;;;22.21;37.13;103203.88;4884374;29;20116;-70
2021/10/10 19:18:56;;;;;;;11.30;4.00;;;;;;;22.15;37.30;103209.66;4884868;29;20403;-71
2021/10/10 19:21:22;;;;;;;9.90;3.58;;;;;;;22.10;37.48;103209.81;4871186;29;20049;-71
2021/10/10 19:23:47;;;;;;;10.10;2.95;;;;;;;22.12;37.28;103212.25;4877444;29;20029;-72
2021/10/10 19:26:13;;;;;;;17.95;3.88;;;;;;;22.09;37.35;103202.63;4877022;29;20076;-74
2021/10/10 19:28:39;;;;;;;12.80;3.72;;;;;;;22.07;37.16;103202.09;4860644;29;20029;-70
2021/10/10 19:31:05;;;;;;;10.90;3.05;;;;;;;22.01;37.32;103195.06;4876709;29;20045;-73
2021/10/10 19:33:31;;;;;;;11.23;2.85;;;;;;;21.98;37.63;103192.13;4877603;29;20389;-74
2021/10/10 19:35:57;;;;;;;12.45;3.50;;;;;;;21.89;37.68;103194.94;4875971;29;20104;-75
2021/10/10 19:38:24;;;;;;;7.65;2.70;;;;;;;21.96;37.42;103200.00;4877622;29;20373;-78
2021/10/10 19:40:50;;;;;;;9.82;3.35;;;;;;;21.94;37.29;103207.88;4876145;29;20067;-74
2021/10/10 19:43:15;;;;;;;13.18;2.97;;;;;;;22.03;37.13;103203.09;4877376;29;20033;-75
2021/10/10 19:45:42;;;;;;;15.90;4.38;;;;;;;21.98;37.52;103206.03;4877311;29;20111;-74
2021/10/10 19:48:11;;;;;;;16.98;3.20;;;;;;;21.93;37.48;103201.50;4876301;29;20538;-74
2021/10/10 19:50:36;;;;;;;11.30;3.38;;;;;;;21.88;37.37;103188.56;4876990;29;20036;-80
2021/10/10 19:53:05;;;;;;;13.35;4.85;;;;;;;21.85;37.39;103196.75;4895005;29;20040;-79
2021/10/10 19:55:31;;;;;;;11.85;3.90;;;;;;;21.82;37.42;103192.66;4895951;29;20360;-74
2021/10/10 19:57:57;;;;;;;12.85;4.75;;;;;;;21.77;37.36;103189.25;4894804;29;20037;-80
2021/10/10 20:00:22;;;;;;;15.15;4.38;;;;;;;21.63;37.73;103194.19;4895838;29;20431;-71
2021/10/10 20:02:48;;;;;;;12.43;5.20;;;;;;;21.71;37.45;103185.81;4895158;29;20037;-73
2021/10/10 20:05:14;;;;;;;13.82;5.60;;;;;;;21.68;37.64;103186.47;4894764;29;20041;-71
2021/10/10 20:07:39;;;;;;;22.70;8.10;;;;;;;21.56;37.72;103184.38;4884622;29;20070;-75
2021/10/10 20:10:06;;;;;;;18.52;6.82;;;;;;;21.55;37.77;103188.31;4878900;29;20120;-72
2021/10/10 20:12:32;;;;;;;18.13;6.60;;;;;;;21.42;37.74;103189.28;4879214;29;20120;-94
2021/10/10 20:14:58;;;;;;;27.63;9.85;;;;;;;21.37;38.06;103185.84;4863000;29;20040;-83
2021/10/10 20:17:23;;;;;;;12.63;5.10;;;;;;;21.33;38.07;103189.28;4879725;29;20029;-92
2021/10/10 20:19:49;;;;;;;13.57;4.05;;;;;;;21.34;38.13;103187.31;4879414;29;20032;-81
2021/10/10 20:22:15;;;;;;;14.32;3.97;;;;;;;21.31;38.12;103193.53;4879105;29;20056;-86
2021/10/10 20:24:40;;;;;;;18.10;4.00;;;;;;;21.25;38.17;103198.44;4880637;29;20025;-72
2021/10/10 20:27:06;;;;;;;9.65;3.42;;;;;;;21.20;38.13;103201.34;4863028;29;20063;-91
2021/10/10 20:29:31;;;;;;;11.45;3.40;;;;;;;21.20;38.19;103195.78;4864229;29;20065;-74
2021/10/10 20:31:57;;;;;;;10.18;2.80;;;;;;;21.14;38.09;103204.63;4862625;29;20642;-92
2021/10/10 20:34:22;;;;;;;15.48;3.55;;;;;;;21.10;38.32;103206.44;4866827;29;20035;-73
2021/10/10 20:36:48;;;;;;;11.93;3.20;;;;;;;21.05;38.26;103211.00;4890457;29;20037;-76
2021/10/10 20:39:14;;;;;;;15.18;3.00;;;;;;;20.97;38.60;103209.03;4885959;29;20054;-92
2021/10/10 20:41:39;;;;;;;10.43;2.95;;;;;;;20.95;38.61;103210.50;4882824;29;20029;-72
2021/10/10 20:44:05;;;;;;;15.75;4.30;;;;;;;20.88;38.49;103216.53;4882224;29;20025;-72
2021/10/10 20:46:31;;;;;;;8.68;3.95;;;;;;;20.85;38.75;103231.06;4882224;29;20061;-72
2021/10/10 20:48:58;;;;;;;21.45;5.25;;;;;;;20.73;38.88;103231.69;4882385;29;20029;-73
2021/10/10 20:51:24;;;;;;;13.30;3.70;;;;;;;20.78;38.70;103244.59;4882181;29;20496;-72
2021/10/10 20:53:50;;;;;;;17.60;3.38;;;;;;;20.81;38.52;103251.47;4882476;29;20060;-72
2021/10/10 20:56:15;;;;;;;14.77;4.28;;;;;;;20.76;38.68;103255.22;4882191;29;20123;-79
2021/10/10 20:58:41;;;;;;;10.52;3.00;;;;;;;20.77;38.76;103245.75;4882174;29;20025;-72
2021/10/10 21:01:08;;;;;;;6.15;3.00;;;;;;;20.74;38.78;103250.00;4882334;29;20037;-73
2021/10/10 21:03:35;;;;;;;11.65;3.10;;;;;;;20.71;38.83;103252.59;4865464;29;20028;-72
2021/10/10 21:06:02;;;;;;;11.45;3.53;;;;;;;20.70;38.82;103250.94;4865258;29;20394;-73
2021/10/10 21:08:30;;;;;;;15.73;3.50;;;;;;;20.72;38.78;103255.06;4882021;29;20024;-73
2021/10/10 21:11:05;;;;;;;10.50;3.10;;;;;;;20.66;38.85;103250.78;4882049;29;20119;-78
2021/10/10 21:13:32;;;;;;;15.23;3.28;;;;;;;20.64;38.90;103252.25;4881935;29;20073;-73
2021/10/10 21:15:57;;;;;;;9.10;2.67;;;;;;;20.58;38.85;103246.00;4881929;29;20055;-78
2021/10/10 21:18:23;;;;;;;12.70;3.67;;;;;;;20.58;39.03;103247.97;4881759;29;20036;-72
2021/10/10 21:20:49;;;;;;;15.43;4.07;;;;;;;20.53;39.06;103239.78;4881912;29;20057;-72
2021/10/10 21:23:15;;;;;;;13.60;3.22;;;;;;;20.49;39.12;103234.88;4881625;29;20033;-72
2021/10/10 21:25:41;;;;;;;12.13;3.53;;;;;;;20.45;38.97;103233.88;4881749;29;20037;-72
2021/10/10 21:28:14;;;;;;;15.95;4.47;;;;;;;20.39;39.02;103228.75;4881630;29;20064;-73
2021/10/10 21:30:49;;;;;;;12.18;3.15;;;;;;;20.36;39.09;103226.63;4881514;29;20490;-73
2021/10/10 21:35:49;;;;;;;16.50;4.45;;;;;;;20.01;39.59;103242.25;4881450;29;20052;-72
2021/10/10 21:38:15;;;;;;;11.25;3.55;;;;;;;20.13;39.26;103243.31;4881307;29;20456;-72
2021/10/10 21:40:41;;;;;;;12.90;4.30;;;;;;;20.13;39.36;103236.94;4881363;29;20398;-72
2021/10/10 21:43:06;;;;;;;16.70;3.72;;;;;;;20.10;39.32;103245.88;4881258;29;20480;-72
2021/10/10 21:45:32;;;;;;;15.10;4.32;;;;;;;20.02;39.58;103246.66;4880938;29;20123;-73
2021/10/10 21:47:58;;;;;;;15.82;4.03;;;;;;;20.03;39.59;103248.31;4881276;29;20064;-72
2021/10/10 21:50:23;;;;;;;16.48;3.90;;;;;;;20.04;39.65;103249.97;4881271;29;20033;-72
2021/10/10 21:52:49;;;;;;;15.70;4.50;;;;;;;20.05;39.78;103246.88;4881445;29;20093;-73
2021/10/10 21:55:15;;;;;;;11.07;3.75;;;;;;;20.08;39.69;103249.00;4881174;29;20506;-72
2021/10/10 21:57:40;;;;;;;15.27;4.43;;;;;;;20.05;39.87;103238.53;4881047;29;20107;-72
2021/10/10 22:00:13;;;;;;;15.55;4.20;;;;;;;20.08;39.86;103228.75;4881063;29;20037;-72
2021/10/10 22:02:40;;;;;;;13.25;4.00;;;;;;;20.07;39.82;103233.47;4881202;29;20472;-73
2021/10/10 22:05:06;;;;;;;10.65;4.35;;;;;;;20.09;39.83;103225.66;4880955;29;20037;-72
2021/10/10 22:07:32;;;;;;;15.32;5.93;;;;;;;20.03;39.98;103226.94;4880714;29;20057;-73
2021/10/10 22:09:58;;;;;;;18.23;4.95;;;;;;;20.03;39.86;103242.78;4880876;29;20116;-72
2021/10/10 22:12:24;;;;;;;15.88;4.38;;;;;;;20.02;39.97;103246.66;4880764;29;20025;-72
2021/10/10 22:14:50;;;;;;;13.05;4.95;;;;;;;20.02;39.99;103249.44;4880839;29;20036;-72
2021/10/10 22:17:16;;;;;;;15.98;4.80;;;;;;;19.92;40.07;103248.56;4880715;29;20037;-72
2021/10/10 22:19:41;;;;;;;13.95;4.57;;;;;;;19.89;40.23;103259.50;4880678;29;20036;-72
2021/10/10 22:22:08;;;;;;;13.63;4.38;;;;;;;19.90;40.12;103261.13;4880866;29;20033;-76
2021/10/10 22:24:40;;;;;;;10.07;4.00;;;;;;;19.90;40.18;103266.69;4880583;29;20033;-72
2021/10/10 22:32:29;;;;;;;14.50;4.28;;;;;;;19.97;39.93;103263.47;4880519;29;20032;-73
2021/10/10 22:34:55;;;;;;;19.00;4.65;;;;;;;19.94;39.87;103265.72;4880419;29;20524;-72
2021/10/10 22:37:21;;;;;;;10.65;3.40;;;;;;;19.95;39.85;103264.59;4880361;29;20036;-72
2021/10/10 22:39:46;;;;;;;12.52;4.80;;;;;;;19.94;39.69;103259.34;4880377;29;20416;-82
2021/10/10 22:42:12;;;;;;;20.60;4.45;;;;;;;19.88;39.84;103260.63;4880359;29;20029;-72
2021/10/10 22:44:39;;;;;;;10.40;3.85;;;;;;;19.83;39.89;103267.13;4880312;29;20068;-72
2021/10/10 22:47:06;;;;;;;11.35;4.00;;;;;;;19.76;40.02;103258.41;4863516;29;20036;-72
2021/10/10 22:49:34;;;;;;;16.45;5.00;;;;;;;19.53;40.53;103259.50;4880275;29;20056;-73
2021/10/10 22:52:00;;;;;;;12.45;4.43;;;;;;;19.44;40.86;103253.06;4880438;29;20029;-72
2021/10/10 22:54:26;;;;;;;14.57;4.05;;;;;;;19.52;40.76;103260.63;4885320;29;20464;-86
2021/10/10 22:56:52;;;;;;;15.15;5.25;;;;;;;19.50;40.66;103260.13;4898010;29;20056;-72
2021/10/10 22:59:18;;;;;;;12.65;3.88;;;;;;;19.48;40.98;103265.97;4881874;29;20036;-74
2021/10/10 23:01:44;;;;;;;10.82;3.55;;;;;;;19.49;40.80;103266.78;4898715;29;20039;-72
2021/10/10 23:04:10;;;;;;;12.25;3.92;;;;;;;19.43;41.12;103274.44;4898436;29;20611;-72
2021/10/10 23:06:36;;;;;;;13.65;3.58;;;;;;;19.43;41.14;103276.38;4898391;29;20124;-73
2021/10/10 23:09:03;;;;;;;13.18;4.30;;;;;;;19.46;40.84;103271.00;4897989;29;20035;-72
2021/10/10 23:11:29;;;;;;;19.05;5.35;;;;;;;19.36;41.10;103269.31;4898554;29;20028;-73
2021/10/10 23:13:54;;;;;;;14.73;4.03;;;;;;;19.29;41.48;103268.09;4898445;29;20033;-72
2021/10/10 23:16:20;;;;;;;13.93;3.80;;;;;;;19.43;40.93;103268.88;4898482;29;20107;-72
2021/10/10 23:18:46;;;;;;;17.30;5.18;;;;;;;19.31;41.35;103266.63;4898303;29;20040;-72
2021/10/10 23:21:12;;;;;;;12.13;3.80;;;;;;;19.38;41.06;103277.31;4881568;29;20035;-81
2021/10/10 23:23:37;;;;;;;14.07;3.85;;;;;;;19.39;40.96;103265.91;4897782;29;20483;-73
2021/10/10 23:26:03;;;;;;;10.10;3.45;;;;;;;19.32;41.21;103265.50;4898228;29;20036;-73
2021/10/10 23:28:30;;;;;;;14.52;3.70;;;;;;;19.36;41.06;103265.72;4898242;29;20036;-73
2021/10/10 23:30:56;;;;;;;14.48;3.97;;;;;;;19.31;41.06;103263.88;4898259;29;20040;-73
2021/10/10 23:33:22;;;;;;;13.05;3.80;;;;;;;19.25;41.17;103267.06;4898174;29;20089;-73
2021/10/10 23:35:47;;;;;;;11.30;3.97;;;;;;;19.28;41.05;103255.38;4897963;29;20025;-85
2021/10/10 23:38:13;;;;;;;10.18;3.65;;;;;;;19.19;41.39;103255.25;4898242;29;20033;-72
2021/10/10 23:40:39;;;;;;;12.50;4.25;;;;;;;19.25;40.98;103256.78;4897370;29;20036;-73
2021/10/10 23:43:04;;;;;;;12.35;3.80;;;;;;;19.29;41.13;103257.00;4881146;29;20491;-73
2021/10/10 23:45:30;;;;;;;12.38;3.83;;;;;;;19.27;41.14;103249.00;4897919;29;20071;-73
2021/10/10 23:47:55;;;;;;;16.77;4.38;;;;;;;19.26;41.02;103247.34;4897889;29;20036;-85
2021/10/10 23:50:21;;;;;;;6.78;3.78;;;;;;;19.26;40.97;103252.06;4897647;29;20029;-73
2021/10/10 23:52:47;;;;;;;15.23;4.20;;;;;;;19.28;41.00;103245.09;4896075;29;20506;-72
2021/10/10 23:55:12;;;;;;;14.30;4.70;;;;;;;19.27;40.88;103251.78;4897711;29;20029;-72
2021/10/10 23:57:38;;;;;;;24.33;5.40;;;;;;;19.27;41.05;103242.63;4897442;29;20070;-73
